Time;durP1;ratioP1;P1;durP2;ratioP2;P2;SDS_P1;SDS_P2;PMS_P1;PMS_P2;Temp;Humidity;BMP_temperature;BMP_pressure;BME280_temperature;BME280_humidity;BME280_pressure;Samples;Min_cycle;Max_cycle;Signal;HPM_P1;HPM_P2
2023/06/29 00:02:13;;;;;;;42.53;31.27;;;;;;;;;;5049344;28;20049;-74
2023/06/29 00:04:41;;;;;;;44.78;30.90;;;;;;;;;;5054828;28;20067;-74
2023/06/29 00:07:08;;;;;;;45.95;30.42;;;;;;;;;;5055262;28;20350;-74
2023/06/29 00:09:34;;;;;;;48.28;32.38;;;;;;;;;;5054544;28;20049;-74
2023/06/29 00:12:00;;;;;;;46.90;31.95;;;;;;;;;;5054597;28;20049;-74
2023/06/29 00:14:26;;;;;;;47.83;31.20;;;;;;;;;;5054491;28;20084;-74
2023/06/29 00:16:52;;;;;;;47.38;32.08;;;;;;;;;;5037163;28;20049;-74
2023/06/29 00:19:20;;;;;;;45.13;32.17;;;;;;;;;;5045459;28;20045;-74
2023/06/29 00:21:48;;;;;;;47.53;33.15;;;;;;;;;;5054836;28;20060;-74
2023/06/29 00:24:14;;;;;;;50.35;33.35;;;;;;;;;;5054166;28;20048;-72
2023/06/29 00:26:41;;;;;;;48.08;33.05;;;;;;;;;;5039338;28;20056;-72
2023/06/29 00:29:07;;;;;;;48.35;32.47;;;;;;;;;;5057219;28;20040;-73
2023/06/29 00:31:34;;;;;;;46.80;32.35;;;;;;;;;;5054672;28;20056;-73
2023/06/29 00:34:00;;;;;;;53.95;33.53;;;;;;;;;;5036063;28;20051;-73
2023/06/29 00:36:26;;;;;;;50.90;33.88;;;;;;;;;;5053725;28;20045;-74
2023/06/29 00:38:52;;;;;;;49.70;33.05;;;;;;;;;;5047988;28;20116;-74
2023/06/29 00:41:18;;;;;;;46.78;31.83;;;;;;;;;;5050322;28;20045;-74
2023/06/29 00:43:45;;;;;;;45.80;33.00;;;;;;;;;;5035951;28;20052;-74
2023/06/29 00:46:13;;;;;;;44.83;32.47;;;;;;;;;;5016007;28;20099;-74
2023/06/29 00:48:39;;;;;;;49.55;32.72;;;;;;;;;;5044748;28;20045;-73
2023/06/29 00:51:06;;;;;;;44.92;32.45;;;;;;;;;;5043254;28;20103;-73
2023/06/29 00:53:32;;;;;;;46.17;33.92;;;;;;;;;;5047852;28;20198;-73
2023/06/29 00:55:59;;;;;;;50.95;34.40;;;;;;;;;;5039964;28;20486;-73
2023/06/29 00:58:25;;;;;;;45.55;32.00;;;;;;;;;;5033702;28;20540;-73
2023/06/29 01:00:52;;;;;;;50.28;33.38;;;;;;;;;;5035390;28;20072;-74
2023/06/29 01:03:18;;;;;;;44.50;31.90;;;;;;;;;;5050771;28;20041;-73
2023/06/29 01:05:45;;;;;;;49.35;34.05;;;;;;;;;;5052749;28;20037;-74
2023/06/29 01:08:18;;;;;;;45.42;31.88;;;;;;;;;;5035757;28;20053;-74
2023/06/29 01:10:45;;;;;;;46.15;31.20;;;;;;;;;;5039898;28;20064;-74
2023/06/29 01:13:11;;;;;;;48.95;32.90;;;;;;;;;;5033662;28;20086;-74
2023/06/29 01:15:39;;;;;;;49.13;31.92;;;;;;;;;;5038971;28;20095;-73
2023/06/29 01:18:05;;;;;;;44.72;31.95;;;;;;;;;;5034889;28;20127;-74
2023/06/29 01:20:32;;;;;;;50.17;32.63;;;;;;;;;;5051674;28;20500;-74
2023/06/29 01:23:11;;;;;;;47.72;32.85;;;;;;;;;;5051739;28;20076;-74
2023/06/29 01:25:37;;;;;;;49.50;34.10;;;;;;;;;;5049539;28;20512;-74
2023/06/29 01:28:10;;;;;;;45.15;31.88;;;;;;;;;;5051960;28;20041;-74
2023/06/29 01:30:48;;;;;;;48.65;32.90;;;;;;;;;;5052608;28;20052;-74
2023/06/29 01:33:15;;;;;;;49.22;32.47;;;;;;;;;;5035318;28;20136;-74
2023/06/29 01:35:42;;;;;;;49.40;31.92;;;;;;;;;;5032177;28;20046;-74
2023/06/29 01:38:27;;;;;;;42.38;31.90;;;;;;;;;;5033428;28;20061;-74
2023/06/29 01:40:53;;;;;;;47.92;33.80;;;;;;;;;;5050074;28;20177;-74
2023/06/29 01:43:20;;;;;;;51.03;31.90;;;;;;;;;;5045368;28;20048;-75
2023/06/29 01:45:47;;;;;;;44.92;31.42;;;;;;;;;;5031594;28;20064;-74
2023/06/29 01:48:13;;;;;;;44.63;30.60;;;;;;;;;;5033876;28;20047;-74
2023/06/29 01:50:39;;;;;;;50.90;32.03;;;;;;;;;;5038526;28;20404;-75
2023/06/29 01:53:05;;;;;;;44.42;31.38;;;;;;;;;;5052418;28;20095;-74
2023/06/29 01:55:32;;;;;;;48.55;31.42;;;;;;;;;;5043008;28;20068;-74
2023/06/29 01:57:59;;;;;;;48.53;31.45;;;;;;;;;;5014963;28;20156;-74
2023/06/29 02:00:26;;;;;;;46.20;30.42;;;;;;;;;;5032398;28;20077;-73
2023/06/29 02:02:52;;;;;;;48.88;32.05;;;;;;;;;;5032770;28;20045;-74
2023/06/29 02:05:19;;;;;;;45.45;30.92;;;;;;;;;;5032394;28;20041;-73
2023/06/29 02:07:45;;;;;;;47.05;32.67;;;;;;;;;;5032688;28;20045;-74
2023/06/29 02:10:12;;;;;;;45.95;31.35;;;;;;;;;;5036487;28;20045;-74
2023/06/29 02:12:41;;;;;;;49.15;32.65;;;;;;;;;;5051542;28;20379;-74
2023/06/29 02:15:07;;;;;;;46.22;31.70;;;;;;;;;;5034127;28;20070;-73
2023/06/29 02:17:34;;;;;;;47.97;32.00;;;;;;;;;;5052105;28;20098;-74
2023/06/29 02:20:00;;;;;;;49.03;32.65;;;;;;;;;;5051290;28;20044;-74
2023/06/29 02:22:26;;;;;;;50.50;32.10;;;;;;;;;;5033604;28;20087;-74
2023/06/29 02:24:52;;;;;;;53.40;32.03;;;;;;;;;;5043590;28;20049;-74
2023/06/29 02:27:18;;;;;;;47.22;31.75;;;;;;;;;;5050642;28;20498;-74
2023/06/29 02:29:45;;;;;;;48.40;33.03;;;;;;;;;;5050625;28;20156;-74
2023/06/29 02:32:11;;;;;;;43.83;31.33;;;;;;;;;;5050337;28;20086;-73
2023/06/29 02:34:37;;;;;;;43.78;32.05;;;;;;;;;;5041329;28;20049;-74
2023/06/29 02:37:03;;;;;;;42.13;31.35;;;;;;;;;;5014394;28;20103;-73
2023/06/29 02:39:29;;;;;;;45.25;31.00;;;;;;;;;;5014072;28;20182;-74
2023/06/29 02:41:55;;;;;;;40.92;30.83;;;;;;;;;;5030267;28;20416;-74
2023/06/29 02:44:21;;;;;;;48.10;30.48;;;;;;;;;;5025717;28;20053;-74
2023/06/29 02:46:47;;;;;;;46.67;31.13;;;;;;;;;;5030907;28;20451;-74
2023/06/29 02:49:15;;;;;;;46.80;31.35;;;;;;;;;;5041208;28;20123;-74
2023/06/29 02:51:41;;;;;;;43.75;31.15;;;;;;;;;;5049462;28;20053;-74
2023/06/29 02:54:07;;;;;;;45.40;31.20;;;;;;;;;;5036638;28;20132;-74
2023/06/29 02:56:33;;;;;;;47.67;29.77;;;;;;;;;;5033607;28;20124;-74
2023/06/29 02:59:00;;;;;;;46.50;29.92;;;;;;;;;;5044338;28;20044;-74
2023/06/29 03:01:26;;;;;;;43.20;30.88;;;;;;;;;;5022816;28;20049;-74
2023/06/29 03:03:52;;;;;;;45.17;29.70;;;;;;;;;;5050636;28;20052;-74
2023/06/29 03:06:18;;;;;;;40.92;29.92;;;;;;;;;;5036924;28;20049;-73
2023/06/29 03:08:45;;;;;;;47.95;31.77;;;;;;;;;;5031939;28;20045;-75
2023/06/29 03:11:11;;;;;;;47.00;30.42;;;;;;;;;;5031815;28;20056;-74
2023/06/29 03:13:37;;;;;;;48.72;30.92;;;;;;;;;;5032090;28;20049;-74
2023/06/29 03:16:03;;;;;;;45.30;29.52;;;;;;;;;;5031797;28;20046;-75
2023/06/29 03:18:29;;;;;;;44.63;29.63;;;;;;;;;;5047241;28;20041;-75
2023/06/29 03:20:55;;;;;;;45.42;30.92;;;;;;;;;;5051758;28;20123;-75
2023/06/29 03:23:22;;;;;;;41.33;29.08;;;;;;;;;;5051803;28;20045;-75
2023/06/29 03:25:48;;;;;;;40.65;30.23;;;;;;;;;;5054967;28;20091;-75
2023/06/29 03:28:15;;;;;;;46.05;29.05;;;;;;;;;;5055769;28;20503;-75
2023/06/29 03:30:41;;;;;;;43.08;29.42;;;;;;;;;;5054361;28;20135;-75
2023/06/29 03:33:07;;;;;;;42.45;29.70;;;;;;;;;;5037708;28;20131;-74
2023/06/29 03:35:33;;;;;;;43.95;28.63;;;;;;;;;;5055506;28;20136;-75
2023/06/29 03:37:59;;;;;;;42.47;29.23;;;;;;;;;;5055504;28;20147;-74
2023/06/29 03:40:25;;;;;;;43.75;28.42;;;;;;;;;;5054313;28;20045;-74
2023/06/29 03:42:52;;;;;;;42.78;29.52;;;;;;;;;;5054894;28;20087;-74
2023/06/29 03:45:19;;;;;;;41.65;29.13;;;;;;;;;;5055551;28;20096;-75
2023/06/29 03:47:45;;;;;;;41.03;27.30;;;;;;;;;;5055189;28;20476;-74
2023/06/29 03:50:12;;;;;;;37.28;27.38;;;;;;;;;;5047192;28;20141;-74
2023/06/29 03:52:38;;;;;;;41.58;27.92;;;;;;;;;;5051678;28;20041;-75
2023/06/29 03:55:07;;;;;;;40.95;27.90;;;;;;;;;;5042160;28;20046;-75
2023/06/29 03:57:33;;;;;;;41.38;27.33;;;;;;;;;;5053504;28;20044;-74
2023/06/29 04:00:00;;;;;;;43.65;28.63;;;;;;;;;;5053788;28;20045;-74
2023/06/29 04:02:26;;;;;;;37.53;27.77;;;;;;;;;;5054951;28;20389;-75
2023/06/29 04:04:52;;;;;;;43.38;28.02;;;;;;;;;;5045813;28;20045;-73
2023/06/29 04:07:18;;;;;;;39.78;26.63;;;;;;;;;;5053436;28;20045;-73
2023/06/29 04:09:44;;;;;;;36.65;26.48;;;;;;;;;;5047502;28;20088;-75
2023/06/29 04:12:10;;;;;;;42.85;28.00;;;;;;;;;;5045885;28;20045;-74
2023/06/29 04:14:36;;;;;;;39.83;27.90;;;;;;;;;;5043144;28;20080;-74
2023/06/29 04:17:03;;;;;;;36.60;26.48;;;;;;;;;;5037034;28;20570;-74
2023/06/29 04:19:29;;;;;;;39.30;26.73;;;;;;;;;;5036514;28;20041;-74
2023/06/29 04:21:55;;;;;;;36.45;25.65;;;;;;;;;;5034816;28;20041;-73
2023/06/29 04:24:22;;;;;;;36.55;25.27;;;;;;;;;;5035678;28;20038;-74
2023/06/29 04:26:48;;;;;;;35.28;24.55;;;;;;;;;;5035771;28;20049;-74
2023/06/29 04:29:14;;;;;;;38.88;24.13;;;;;;;;;;5048160;28;20049;-74
2023/06/29 04:31:40;;;;;;;35.00;25.27;;;;;;;;;;5054059;28;20048;-74
2023/06/29 04:34:06;;;;;;;35.35;23.60;;;;;;;;;;5021326;28;20393;-74
2023/06/29 04:36:33;;;;;;;36.15;25.58;;;;;;;;;;5050132;28;20462;-73
2023/06/29 04:39:00;;;;;;;33.95;24.80;;;;;;;;;;5053794;28;20407;-74
2023/06/29 04:41:32;;;;;;;33.60;24.52;;;;;;;;;;5052546;28;20045;-74
2023/06/29 04:43:59;;;;;;;34.67;23.35;;;;;;;;;;5051216;28;20045;-74
2023/06/29 04:46:27;;;;;;;35.72;24.63;;;;;;;;;;5044937;28;20132;-75
2023/06/29 04:48:54;;;;;;;30.77;21.98;;;;;;;;;;5027363;28;20051;-75
2023/06/29 04:51:20;;;;;;;34.92;23.52;;;;;;;;;;5031831;28;20049;-74
2023/06/29 04:53:46;;;;;;;36.60;23.73;;;;;;;;;;5036994;28;20044;-75
2023/06/29 04:56:12;;;;;;;32.10;22.52;;;;;;;;;;5034954;28;20087;-75
2023/06/29 04:58:39;;;;;;;33.20;24.45;;;;;;;;;;5033927;28;20076;-75
2023/06/29 05:01:05;;;;;;;31.08;23.17;;;;;;;;;;5048252;28;20040;-75
2023/06/29 05:03:31;;;;;;;31.75;21.83;;;;;;;;;;5015995;28;20052;-73
2023/06/29 05:05:58;;;;;;;34.53;22.65;;;;;;;;;;5044245;28;20561;-73
2023/06/29 05:08:24;;;;;;;30.63;22.63;;;;;;;;;;5053623;28;20041;-74
2023/06/29 05:10:50;;;;;;;31.15;22.45;;;;;;;;;;5053535;28;20140;-75
2023/06/29 05:13:16;;;;;;;30.92;21.73;;;;;;;;;;5053753;28;20523;-75
2023/06/29 05:15:47;;;;;;;33.25;21.73;;;;;;;;;;5053659;28;20049;-75
2023/06/29 05:18:13;;;;;;;31.98;22.65;;;;;;;;;;5040978;28;20042;-75
2023/06/29 05:20:39;;;;;;;32.35;22.17;;;;;;;;;;5033234;28;20042;-73
2023/06/29 05:23:06;;;;;;;32.97;22.67;;;;;;;;;;5015736;28;20091;-74
2023/06/29 05:25:32;;;;;;;34.30;23.00;;;;;;;;;;5044407;28;20044;-73
2023/06/29 05:27:58;;;;;;;29.35;21.20;;;;;;;;;;5041358;28;20041;-74
2023/06/29 05:30:24;;;;;;;30.73;21.20;;;;;;;;;;5051950;28;20143;-74
2023/06/29 05:32:50;;;;;;;31.45;20.40;;;;;;;;;;5053555;28;20037;-74
2023/06/29 05:35:16;;;;;;;28.42;20.77;;;;;;;;;;5035387;28;20136;-74
2023/06/29 05:37:42;;;;;;;31.52;21.67;;;;;;;;;;5035860;28;20065;-74
2023/06/29 05:40:09;;;;;;;29.95;20.83;;;;;;;;;;5052809;28;20044;-73
2023/06/29 05:42:36;;;;;;;30.45;20.88;;;;;;;;;;5053233;28;20099;-74
2023/06/29 05:45:02;;;;;;;27.23;19.75;;;;;;;;;;5052733;28;20068;-74
2023/06/29 05:47:29;;;;;;;29.58;19.48;;;;;;;;;;5053133;28;20111;-75
2023/06/29 05:49:55;;;;;;;29.38;20.25;;;;;;;;;;5052723;28;20083;-72
2023/06/29 05:52:21;;;;;;;29.85;20.20;;;;;;;;;;5048279;28;20052;-73
2023/06/29 05:54:47;;;;;;;28.98;20.63;;;;;;;;;;5052667;28;20049;-73
2023/06/29 05:57:13;;;;;;;29.92;20.75;;;;;;;;;;5051670;28;20053;-73
2023/06/29 05:59:40;;;;;;;26.92;19.70;;;;;;;;;;5052421;28;20037;-73
2023/06/29 06:02:06;;;;;;;30.23;20.25;;;;;;;;;;5052741;28;20041;-73
2023/06/29 06:04:34;;;;;;;26.85;18.83;;;;;;;;;;5034424;28;20067;-73
2023/06/29 06:07:00;;;;;;;28.73;19.88;;;;;;;;;;5052554;28;20382;-73
2023/06/29 06:09:26;;;;;;;27.42;18.73;;;;;;;;;;5052164;28;20141;-73
2023/06/29 06:11:54;;;;;;;28.30;18.70;;;;;;;;;;5052449;28;20049;-77
2023/06/29 06:14:21;;;;;;;28.02;19.73;;;;;;;;;;5052339;28;20163;-77
2023/06/29 06:16:47;;;;;;;29.25;19.05;;;;;;;;;;5052572;28;20127;-77
2023/06/29 06:19:13;;;;;;;26.35;18.92;;;;;;;;;;5033262;28;20123;-77
2023/06/29 06:21:39;;;;;;;26.00;18.55;;;;;;;;;;5053286;28;20464;-75
2023/06/29 06:24:05;;;;;;;31.67;19.17;;;;;;;;;;5020383;28;20121;-76
2023/06/29 06:26:31;;;;;;;27.67;18.58;;;;;;;;;;5032536;28;20045;-77
2023/06/29 06:28:57;;;;;;;28.63;18.90;;;;;;;;;;5015540;28;20103;-76
2023/06/29 06:31:25;;;;;;;28.08;19.17;;;;;;;;;;5031974;28;20056;-74
2023/06/29 06:33:56;;;;;;;27.38;18.95;;;;;;;;;;5044123;28;20099;-77
2023/06/29 06:36:25;;;;;;;26.23;18.88;;;;;;;;;;5031762;28;20041;-76
2023/06/29 06:38:51;;;;;;;28.67;18.42;;;;;;;;;;5042396;28;20149;-77
2023/06/29 06:41:18;;;;;;;30.17;19.38;;;;;;;;;;5052231;28;20056;-76
2023/06/29 06:43:44;;;;;;;29.40;19.13;;;;;;;;;;5052117;28;20033;-76
2023/06/29 06:46:10;;;;;;;29.45;18.70;;;;;;;;;;5051940;28;20045;-76
2023/06/29 06:48:36;;;;;;;31.30;20.30;;;;;;;;;;5052122;28;20040;-76
2023/06/29 06:51:02;;;;;;;25.42;19.15;;;;;;;;;;5048720;28;20081;-76
2023/06/29 06:53:28;;;;;;;32.83;18.77;;;;;;;;;;5049232;28;20049;-76
2023/06/29 06:55:54;;;;;;;29.05;18.75;;;;;;;;;;5052190;28;20123;-77
2023/06/29 06:58:20;;;;;;;29.52;19.45;;;;;;;;;;5051195;28;20063;-76
2023/06/29 07:00:47;;;;;;;26.55;18.23;;;;;;;;;;5054454;28;20044;-76
2023/06/29 07:03:13;;;;;;;27.95;18.40;;;;;;;;;;5055334;28;20061;-78
2023/06/29 07:05:39;;;;;;;26.17;17.83;;;;;;;;;;5038432;28;20036;-77
2023/06/29 07:08:06;;;;;;;26.58;18.65;;;;;;;;;;5038178;28;20398;-75
2023/06/29 07:10:32;;;;;;;30.05;18.52;;;;;;;;;;5036514;28;20061;-75
2023/06/29 07:12:58;;;;;;;27.63;18.48;;;;;;;;;;5036313;28;20049;-75
2023/06/29 07:15:24;;;;;;;27.75;18.80;;;;;;;;;;5040606;28;20045;-75
2023/06/29 07:17:50;;;;;;;27.52;18.27;;;;;;;;;;5045179;28;20052;-75
2023/06/29 07:20:16;;;;;;;28.83;18.33;;;;;;;;;;5055311;28;20098;-75
2023/06/29 07:22:42;;;;;;;28.80;19.35;;;;;;;;;;5054200;28;20048;-75
2023/06/29 07:25:11;;;;;;;28.33;18.95;;;;;;;;;;5052186;28;20041;-75
2023/06/29 07:27:37;;;;;;;30.38;19.02;;;;;;;;;;5042602;28;20438;-75
2023/06/29 07:30:05;;;;;;;29.63;19.08;;;;;;;;;;5035509;28;20041;-75
2023/06/29 07:32:31;;;;;;;29.83;19.60;;;;;;;;;;5054070;28;20447;-76
2023/06/29 07:34:57;;;;;;;29.48;18.77;;;;;;;;;;5052404;28;20047;-75
2023/06/29 07:37:24;;;;;;;28.52;19.58;;;;;;;;;;5035587;28;20060;-75
2023/06/29 07:39:50;;;;;;;30.55;18.90;;;;;;;;;;5038044;28;20041;-73
2023/06/29 07:42:16;;;;;;;31.42;19.33;;;;;;;;;;5043638;28;20049;-73
2023/06/29 07:44:42;;;;;;;28.83;19.30;;;;;;;;;;5024052;28;20091;-75
2023/06/29 07:47:08;;;;;;;29.60;20.73;;;;;;;;;;5035147;28;20048;-75
2023/06/29 07:49:34;;;;;;;29.13;19.70;;;;;;;;;;5035035;28;20042;-75
2023/06/29 07:52:00;;;;;;;28.52;20.13;;;;;;;;;;5038522;28;20049;-78
2023/06/29 07:54:27;;;;;;;32.22;20.63;;;;;;;;;;5037287;28;20447;-75
2023/06/29 07:56:53;;;;;;;29.65;19.38;;;;;;;;;;5055609;28;20087;-76
2023/06/29 07:59:22;;;;;;;28.42;19.05;;;;;;;;;;5052985;28;20084;-74
2023/06/29 08:01:53;;;;;;;30.02;20.58;;;;;;;;;;5035464;28;20096;-76
2023/06/29 08:04:19;;;;;;;28.30;19.85;;;;;;;;;;5035418;28;20403;-75
2023/06/29 08:06:45;;;;;;;30.30;20.45;;;;;;;;;;5035019;28;20049;-76
2023/06/29 08:09:11;;;;;;;29.77;19.67;;;;;;;;;;5016984;28;20057;-75
2023/06/29 08:11:38;;;;;;;31.40;21.52;;;;;;;;;;5034327;28;20088;-75
2023/06/29 08:14:05;;;;;;;29.75;21.02;;;;;;;;;;5034035;28;20049;-76
2023/06/29 08:16:31;;;;;;;29.80;20.38;;;;;;;;;;5017417;28;20482;-76
2023/06/29 08:18:57;;;;;;;30.55;21.75;;;;;;;;;;5034998;28;20049;-76
2023/06/29 08:21:23;;;;;;;31.35;21.40;;;;;;;;;;5016817;28;20516;-76
2023/06/29 08:23:50;;;;;;;33.08;21.27;;;;;;;;;;5033388;28;20050;-76
2023/06/29 08:26:17;;;;;;;29.63;21.15;;;;;;;;;;5037388;28;20397;-76
2023/06/29 08:28:43;;;;;;;34.80;20.83;;;;;;;;;;5027729;28;20045;-76
2023/06/29 08:31:09;;;;;;;31.20;20.45;;;;;;;;;;5054010;28;20136;-75
2023/06/29 08:33:35;;;;;;;30.67;20.60;;;;;;;;;;5024799;28;20099;-74
2023/06/29 08:36:01;;;;;;;28.17;19.50;;;;;;;;;;5054006;28;20044;-74
2023/06/29 08:38:27;;;;;;;31.75;21.10;;;;;;;;;;5024219;28;20041;-75
2023/06/29 08:40:57;;;;;;;29.42;20.80;;;;;;;;;;5048415;28;20060;-74
2023/06/29 08:43:23;;;;;;;31.13;20.48;;;;;;;;;;5050330;28;20589;-74
2023/06/29 08:45:49;;;;;;;30.55;20.55;;;;;;;;;;5045162;28;20132;-72
2023/06/29 08:48:16;;;;;;;28.45;19.42;;;;;;;;;;5032500;28;20072;-73
2023/06/29 08:50:44;;;;;;;29.40;20.85;;;;;;;;;;5046286;28;20057;-73
2023/06/29 08:53:11;;;;;;;28.02;19.85;;;;;;;;;;5053717;28;20507;-74
2023/06/29 08:55:37;;;;;;;31.67;20.27;;;;;;;;;;5054195;28;20127;-75
2023/06/29 08:58:04;;;;;;;28.55;19.52;;;;;;;;;;5019695;28;20072;-74
2023/06/29 09:00:30;;;;;;;30.80;19.02;;;;;;;;;;5019475;28;20128;-74
2023/06/29 09:02:56;;;;;;;27.63;20.08;;;;;;;;;;5035101;28;20555;-73
2023/06/29 09:05:23;;;;;;;27.95;19.63;;;;;;;;;;5053220;28;20175;-74
2023/06/29 09:07:50;;;;;;;31.85;20.77;;;;;;;;;;5053938;28;20439;-74
2023/06/29 09:10:16;;;;;;;32.38;20.73;;;;;;;;;;5053360;28;20080;-74
2023/06/29 09:12:42;;;;;;;29.15;20.77;;;;;;;;;;5053994;28;20045;-74
2023/06/29 09:15:13;;;;;;;34.47;21.70;;;;;;;;;;5034358;28;20568;-74
2023/06/29 09:17:45;;;;;;;30.92;21.77;;;;;;;;;;5051851;28;20122;-74
2023/06/29 09:20:15;;;;;;;33.25;21.48;;;;;;;;;;5052556;28;20045;-74
2023/06/29 09:22:41;;;;;;;27.45;19.85;;;;;;;;;;5053059;28;20091;-75
2023/06/29 09:25:09;;;;;;;30.80;21.33;;;;;;;;;;5035494;28;20176;-74
2023/06/29 09:27:35;;;;;;;32.97;21.55;;;;;;;;;;5053735;28;20489;-75
2023/06/29 09:30:02;;;;;;;31.10;21.38;;;;;;;;;;5052818;28;20045;-73
2023/06/29 09:32:31;;;;;;;34.80;22.02;;;;;;;;;;5053856;28;20048;-74
2023/06/29 09:35:06;;;;;;;31.27;22.08;;;;;;;;;;5052963;28;20132;-74
2023/06/29 09:37:33;;;;;;;36.13;21.80;;;;;;;;;;5053014;28;20123;-74
2023/06/29 09:40:00;;;;;;;30.92;22.05;;;;;;;;;;5052112;28;20053;-73
2023/06/29 09:42:28;;;;;;;34.55;21.67;;;;;;;;;;5053073;28;20094;-73
2023/06/29 09:44:55;;;;;;;30.23;22.00;;;;;;;;;;5052674;28;20061;-73
2023/06/29 09:47:23;;;;;;;34.30;23.15;;;;;;;;;;5052960;28;20401;-74
2023/06/29 09:49:49;;;;;;;30.83;22.02;;;;;;;;;;5033090;28;20045;-74
2023/06/29 09:52:19;;;;;;;31.27;22.27;;;;;;;;;;5052422;28;20052;-74
2023/06/29 09:54:45;;;;;;;30.90;22.50;;;;;;;;;;5051303;28;20052;-74
2023/06/29 09:57:11;;;;;;;34.03;22.80;;;;;;;;;;5052032;28;20049;-74
2023/06/29 09:59:39;;;;;;;28.95;22.20;;;;;;;;;;5052370;28;20041;-74
2023/06/29 10:02:06;;;;;;;29.40;20.77;;;;;;;;;;5051286;28;20044;-74
2023/06/29 10:04:32;;;;;;;30.83;21.65;;;;;;;;;;5052065;28;20049;-74
2023/06/29 10:07:06;;;;;;;29.20;21.52;;;;;;;;;;5052501;28;20049;-74
2023/06/29 10:09:37;;;;;;;30.00;21.23;;;;;;;;;;5051739;28;20130;-74
2023/06/29 10:12:03;;;;;;;25.38;19.55;;;;;;;;;;5033612;28;20053;-73
2023/06/29 10:14:30;;;;;;;24.60;19.00;;;;;;;;;;5049119;28;20052;-73
2023/06/29 10:16:57;;;;;;;26.95;20.13;;;;;;;;;;5051324;28;20118;-75
2023/06/29 10:19:24;;;;;;;29.45;21.73;;;;;;;;;;5043741;28;20553;-74
2023/06/29 10:21:56;;;;;;;31.17;20.17;;;;;;;;;;5023289;28;20171;-74
2023/06/29 10:24:26;;;;;;;32.47;22.40;;;;;;;;;;5043825;28;20425;-74
2023/06/29 10:26:53;;;;;;;29.08;22.02;;;;;;;;;;5040726;28;20076;-74
2023/06/29 10:29:19;;;;;;;29.45;20.77;;;;;;;;;;5041149;28;20048;-74
2023/06/29 10:31:48;;;;;;;28.40;21.15;;;;;;;;;;5040826;28;20064;-74
2023/06/29 10:34:14;;;;;;;29.90;22.08;;;;;;;;;;5040652;28;20371;-74
2023/06/29 10:36:49;;;;;;;29.95;21.58;;;;;;;;;;5024830;28;20041;-74
2023/06/29 10:39:34;;;;;;;31.40;21.88;;;;;;;;;;5022080;28;20151;-73
2023/06/29 10:42:00;;;;;;;27.38;21.55;;;;;;;;;;5031024;28;20494;-76
2023/06/29 10:44:34;;;;;;;31.98;21.58;;;;;;;;;;5032259;28;20049;-75
2023/06/29 10:47:00;;;;;;;31.52;22.88;;;;;;;;;;5031722;28;20049;-74
2023/06/29 10:49:28;;;;;;;29.20;22.17;;;;;;;;;;5030808;28;20044;-72
2023/06/29 10:52:04;;;;;;;28.92;22.25;;;;;;;;;;5032532;28;20064;-73
2023/06/29 10:54:30;;;;;;;30.95;22.08;;;;;;;;;;5032154;28;20080;-73
2023/06/29 10:57:01;;;;;;;31.15;21.80;;;;;;;;;;5032155;28;20470;-74
2023/06/29 10:59:31;;;;;;;29.15;21.65;;;;;;;;;;5031784;28;20049;-74
2023/06/29 11:01:58;;;;;;;28.33;21.40;;;;;;;;;;5032452;28;20434;-74
2023/06/29 11:04:24;;;;;;;30.20;21.92;;;;;;;;;;5031822;28;20088;-74
2023/06/29 11:06:50;;;;;;;28.42;21.75;;;;;;;;;;5030942;28;20060;-74
2023/06/29 11:09:19;;;;;;;29.13;21.85;;;;;;;;;;5030019;28;20132;-74
2023/06/29 11:11:48;;;;;;;30.92;22.00;;;;;;;;;;5028156;28;20080;-74
2023/06/29 11:14:15;;;;;;;27.73;21.50;;;;;;;;;;5030638;28;20092;-74
2023/06/29 11:16:41;;;;;;;30.58;21.67;;;;;;;;;;5032014;28;20053;-74
2023/06/29 11:19:07;;;;;;;31.30;21.30;;;;;;;;;;5031302;28;20045;-74
2023/06/29 11:21:34;;;;;;;29.08;20.60;;;;;;;;;;5033122;28;20054;-73
2023/06/29 11:24:00;;;;;;;28.52;21.67;;;;;;;;;;5037392;28;20052;-72
2023/06/29 11:26:26;;;;;;;30.55;20.92;;;;;;;;;;5035129;28;20053;-72
2023/06/29 11:28:53;;;;;;;28.38;21.00;;;;;;;;;;5013760;28;20056;-73
2023/06/29 11:31:20;;;;;;;33.28;22.25;;;;;;;;;;5030447;28;20049;-72
2023/06/29 11:33:49;;;;;;;28.55;22.33;;;;;;;;;;5031904;28;20045;-73
2023/06/29 11:36:16;;;;;;;30.13;21.25;;;;;;;;;;5031780;28;20091;-74
2023/06/29 11:38:42;;;;;;;29.08;21.17;;;;;;;;;;5030300;28;20096;-73
2023/06/29 11:41:09;;;;;;;34.17;21.73;;;;;;;;;;5031424;28;20536;-73
2023/06/29 11:43:35;;;;;;;33.72;21.60;;;;;;;;;;5031553;28;20134;-72
2023/06/29 11:46:02;;;;;;;30.35;21.98;;;;;;;;;;5032579;28;20178;-73
2023/06/29 11:48:29;;;;;;;34.47;22.33;;;;;;;;;;5035270;28;20049;-73
2023/06/29 11:50:59;;;;;;;30.92;22.95;;;;;;;;;;5033791;28;20057;-73
2023/06/29 11:53:25;;;;;;;31.13;22.90;;;;;;;;;;5029319;28;20119;-73
2023/06/29 11:55:53;;;;;;;31.90;24.00;;;;;;;;;;5054689;28;20084;-73
2023/06/29 11:58:19;;;;;;;31.38;24.58;;;;;;;;;;5054184;28;20541;-73
2023/06/29 12:00:55;;;;;;;36.30;26.15;;;;;;;;;;5034978;28;20052;-74
2023/06/29 12:03:21;;;;;;;35.40;25.60;;;;;;;;;;5054392;28;20056;-73
2023/06/29 12:05:47;;;;;;;34.40;25.95;;;;;;;;;;5054769;28;20167;-73
2023/06/29 12:08:15;;;;;;;36.50;25.38;;;;;;;;;;5037045;28;20120;-73
2023/06/29 12:10:41;;;;;;;33.75;24.60;;;;;;;;;;5052636;28;20103;-73
2023/06/29 12:13:09;;;;;;;36.40;25.55;;;;;;;;;;5054977;28;20045;-73
2023/06/29 12:15:35;;;;;;;36.67;27.15;;;;;;;;;;5054476;28;20041;-73
2023/06/29 12:18:08;;;;;;;34.08;26.23;;;;;;;;;;5054834;28;20098;-73
2023/06/29 12:20:38;;;;;;;37.13;26.75;;;;;;;;;;5036424;28;20049;-73
2023/06/29 12:23:05;;;;;;;39.10;26.15;;;;;;;;;;5053328;28;20052;-73
2023/06/29 12:25:31;;;;;;;35.60;25.58;;;;;;;;;;5054479;28;20102;-73
2023/06/29 12:27:57;;;;;;;35.67;26.45;;;;;;;;;;5054724;28;20071;-74
2023/06/29 12:30:24;;;;;;;33.88;24.73;;;;;;;;;;5054073;28;20378;-73
2023/06/29 12:32:51;;;;;;;35.13;26.10;;;;;;;;;;5054748;28;20063;-72
2023/06/29 12:35:18;;;;;;;34.08;25.10;;;;;;;;;;5053980;28;20049;-73
2023/06/29 12:37:45;;;;;;;36.28;25.88;;;;;;;;;;5054280;28;20434;-72
2023/06/29 12:40:11;;;;;;;32.10;24.35;;;;;;;;;;5036194;28;20124;-72
2023/06/29 12:42:37;;;;;;;36.92;24.33;;;;;;;;;;5036417;28;20041;-72
2023/06/29 12:45:04;;;;;;;35.28;25.27;;;;;;;;;;5052201;28;20087;-73
2023/06/29 12:47:33;;;;;;;31.95;23.40;;;;;;;;;;5052376;28;20053;-73
2023/06/29 12:49:59;;;;;;;33.42;25.50;;;;;;;;;;5053527;28;20129;-73
2023/06/29 12:52:26;;;;;;;38.28;25.42;;;;;;;;;;5053690;28;20136;-73
2023/06/29 12:54:58;;;;;;;34.20;24.55;;;;;;;;;;5053087;28;20404;-72
2023/06/29 12:57:28;;;;;;;33.05;25.50;;;;;;;;;;5051402;28;20103;-73
2023/06/29 12:59:55;;;;;;;32.97;23.92;;;;;;;;;;5035522;28;20056;-73
2023/06/29 13:02:22;;;;;;;34.28;26.15;;;;;;;;;;5053823;28;20084;-73
2023/06/29 13:04:48;;;;;;;35.53;25.33;;;;;;;;;;5053482;28;20049;-73
2023/06/29 13:07:16;;;;;;;31.02;24.27;;;;;;;;;;5054131;28;20059;-73
2023/06/29 13:09:44;;;;;;;32.00;23.95;;;;;;;;;;5035221;28;20080;-73
2023/06/29 13:12:14;;;;;;;30.33;21.50;;;;;;;;;;5053790;28;20045;-73
2023/06/29 13:14:41;;;;;;;30.73;20.65;;;;;;;;;;5053360;28;20162;-73
2023/06/29 13:17:07;;;;;;;30.33;20.73;;;;;;;;;;5053418;28;20044;-73
2023/06/29 13:19:33;;;;;;;29.95;20.88;;;;;;;;;;5035234;28;20040;-74
2023/06/29 13:22:00;;;;;;;30.30;20.73;;;;;;;;;;5053752;28;20488;-74
2023/06/29 13:24:26;;;;;;;29.67;20.83;;;;;;;;;;5053506;28;20068;-75
2023/06/29 13:26:52;;;;;;;32.35;21.67;;;;;;;;;;5052802;28;20045;-75
2023/06/29 13:29:21;;;;;;;29.00;21.20;;;;;;;;;;5051210;28;20424;-75
2023/06/29 13:31:48;;;;;;;29.23;20.88;;;;;;;;;;5034781;28;20102;-75
2023/06/29 13:34:14;;;;;;;31.40;20.50;;;;;;;;;;5053263;28;20044;-74
2023/06/29 13:36:40;;;;;;;30.27;22.10;;;;;;;;;;5052973;28;20132;-75
2023/06/29 13:39:07;;;;;;;31.10;21.27;;;;;;;;;;5034346;28;20124;-74
2023/06/29 13:41:35;;;;;;;26.00;17.35;;;;;;;;;;5044294;28;20056;-74
2023/06/29 13:44:01;;;;;;;25.58;15.55;;;;;;;;;;5043607;28;20076;-74
2023/06/29 13:46:27;;;;;;;29.10;16.38;;;;;;;;;;5040965;28;20049;-74
2023/06/29 13:48:53;;;;;;;30.77;16.75;;;;;;;;;;5043343;28;20045;-74
2023/06/29 13:51:20;;;;;;;36.50;18.13;;;;;;;;;;5025925;28;20519;-75
2023/06/29 13:53:46;;;;;;;34.88;18.33;;;;;;;;;;5045012;28;20060;-75
2023/06/29 13:56:12;;;;;;;34.88;18.15;;;;;;;;;;5023646;28;20041;-75
2023/06/29 13:58:38;;;;;;;30.23;18.05;;;;;;;;;;5042001;28;20548;-75
2023/06/29 14:01:04;;;;;;;32.78;19.60;;;;;;;;;;5043092;28;20041;-75
2023/06/29 14:03:30;;;;;;;35.65;20.90;;;;;;;;;;5039946;28;20049;-75
2023/06/29 14:05:57;;;;;;;32.50;21.77;;;;;;;;;;5040733;28;20045;-74
2023/06/29 14:08:23;;;;;;;33.88;23.15;;;;;;;;;;5023078;28;20551;-74
2023/06/29 14:10:49;;;;;;;32.50;22.40;;;;;;;;;;5031145;28;20048;-73
2023/06/29 14:13:15;;;;;;;31.50;21.98;;;;;;;;;;5047574;28;20045;-74
2023/06/29 14:15:41;;;;;;;30.40;20.67;;;;;;;;;;5050109;28;20109;-74